sensor_id;sensor_type;location;lat;lon;timestamp;temperature;humidity
21502;DHT22;27639;48.674;9.242;2022-10-22T00:01:10;17.60;70.30
21502;DHT22;27639;48.674;9.242;2022-10-22T00:03:35;17.50;70.30
21502;DHT22;27639;48.674;9.242;2022-10-22T00:06:01;17.50;70.40
21502;DHT22;27639;48.674;9.242;2022-10-22T00:08:27;17.50;70.50
21502;DHT22;27639;48.674;9.242;2022-10-22T00:10:52;17.40;70.30
21502;DHT22;27639;48.674;9.242;2022-10-22T00:13:19;17.40;70.20
21502;DHT22;27639;48.674;9.242;2022-10-22T00:15:44;17.40;70.20
21502;DHT22;27639;48.674;9.242;2022-10-22T00:18:10;17.30;70.00
21502;DHT22;27639;48.674;9.242;2022-10-22T00:20:36;17.30;70.20
21502;DHT22;27639;48.674;9.242;2022-10-22T00:23:01;17.30;70.20
21502;DHT22;27639;48.674;9.242;2022-10-22T00:25:27;17.30;70.20
21502;DHT22;27639;48.674;9.242;2022-10-22T00:27:52;17.30;70.20
21502;DHT22;27639;48.674;9.242;2022-10-22T00:30:18;17.30;70.90
21502;DHT22;27639;48.674;9.242;2022-10-22T00:32:44;17.30;70.20
21502;DHT22;27639;48.674;9.242;2022-10-22T00:35:09;17.30;70.20
21502;DHT22;27639;48.674;9.242;2022-10-22T00:37:35;17.30;70.40
21502;DHT22;27639;48.674;9.242;2022-10-22T00:40:00;17.30;70.40
21502;DHT22;27639;48.674;9.242;2022-10-22T00:42:27;17.40;70.60
21502;DHT22;27639;48.674;9.242;2022-10-22T00:48:10;17.40;70.30
21502;DHT22;27639;48.674;9.242;2022-10-22T00:51:04;17.40;70.30
21502;DHT22;27639;48.674;9.242;2022-10-22T00:53:35;17.40;70.40
21502;DHT22;27639;48.674;9.242;2022-10-22T00:56:01;17.40;70.70
21502;DHT22;27639;48.674;9.242;2022-10-22T00:58:30;17.40;70.60
21502;DHT22;27639;48.674;9.242;2022-10-22T01:00:57;17.40;70.60
21502;DHT22;27639;48.674;9.242;2022-10-22T01:03:23;17.40;70.80
21502;DHT22;27639;48.674;9.242;2022-10-22T01:06:00;17.40;70.80
21502;DHT22;27639;48.674;9.242;2022-10-22T01:08:49;17.40;70.60
21502;DHT22;27639;48.674;9.242;2022-10-22T01:11:26;17.30;70.60
21502;DHT22;27639;48.674;9.242;2022-10-22T01:19:28;17.20;71.00
21502;DHT22;27639;48.674;9.242;2022-10-22T01:22:27;17.10;71.50
21502;DHT22;27639;48.674;9.242;2022-10-22T01:30:42;16.90;71.40
21502;DHT22;27639;48.674;9.242;2022-10-22T01:33:12;16.90;71.90
21502;DHT22;27639;48.674;9.242;2022-10-22T01:35:42;16.90;71.80
21502;DHT22;27639;48.674;9.242;2022-10-22T01:38:13;16.90;72.00
21502;DHT22;27639;48.674;9.242;2022-10-22T01:40:40;16.90;71.90
21502;DHT22;27639;48.674;9.242;2022-10-22T01:43:07;16.90;72.00
21502;DHT22;27639;48.674;9.242;2022-10-22T01:45:43;16.90;71.90
21502;DHT22;27639;48.674;9.242;2022-10-22T02:07:37;16.80;72.60
21502;DHT22;27639;48.674;9.242;2022-10-22T02:10:05;16.90;72.40
21502;DHT22;27639;48.674;9.242;2022-10-22T02:12:33;16.90;72.50
21502;DHT22;27639;48.674;9.242;2022-10-22T02:15:00;16.80;72.50
21502;DHT22;27639;48.674;9.242;2022-10-22T02:17:28;16.80;72.50
21502;DHT22;27639;48.674;9.242;2022-10-22T02:20:01;16.90;72.60
21502;DHT22;27639;48.674;9.242;2022-10-22T02:22:28;16.80;72.30
21502;DHT22;27639;48.674;9.242;2022-10-22T02:24:54;16.80;72.60
21502;DHT22;27639;48.674;9.242;2022-10-22T02:27:32;16.80;72.60
21502;DHT22;27639;48.674;9.242;2022-10-22T02:30:17;16.90;72.40
21502;DHT22;27639;48.674;9.242;2022-10-22T02:32:55;16.90;72.20
21502;DHT22;27639;48.674;9.242;2022-10-22T02:35:23;17.00;72.30
21502;DHT22;27639;48.674;9.242;2022-10-22T02:37:51;17.00;72.30
21502;DHT22;27639;48.674;9.242;2022-10-22T02:40:17;17.00;72.10
21502;DHT22;27639;48.674;9.242;2022-10-22T02:42:46;17.00;72.00
21502;DHT22;27639;48.674;9.242;2022-10-22T02:45:12;17.00;72.00
21502;DHT22;27639;48.674;9.242;2022-10-22T02:47:38;17.00;71.90
21502;DHT22;27639;48.674;9.242;2022-10-22T02:50:04;17.00;71.90
21502;DHT22;27639;48.674;9.242;2022-10-22T02:52:30;17.10;72.00
21502;DHT22;27639;48.674;9.242;2022-10-22T02:54:56;17.10;71.80
21502;DHT22;27639;48.674;9.242;2022-10-22T02:57:21;17.00;71.70
21502;DHT22;27639;48.674;9.242;2022-10-22T02:59:47;16.90;71.90
21502;DHT22;27639;48.674;9.242;2022-10-22T03:02:12;16.80;71.80
21502;DHT22;27639;48.674;9.242;2022-10-22T03:04:38;16.80;72.00
21502;DHT22;27639;48.674;9.242;2022-10-22T03:07:03;16.70;72.20
21502;DHT22;27639;48.674;9.242;2022-10-22T03:09:29;16.70;72.40
21502;DHT22;27639;48.674;9.242;2022-10-22T03:11:54;16.70;72.60
21502;DHT22;27639;48.674;9.242;2022-10-22T03:14:20;16.60;72.40
21502;DHT22;27639;48.674;9.242;2022-10-22T03:16:46;16.70;72.50
21502;DHT22;27639;48.674;9.242;2022-10-22T03:19:11;16.60;72.50
21502;DHT22;27639;48.674;9.242;2022-10-22T03:22:03;16.70;72.60
21502;DHT22;27639;48.674;9.242;2022-10-22T03:24:41;16.70;72.40
21502;DHT22;27639;48.674;9.242;2022-10-22T03:27:10;16.70;72.20
21502;DHT22;27639;48.674;9.242;2022-10-22T03:29:37;16.70;72.20
21502;DHT22;27639;48.674;9.242;2022-10-22T03:32:04;16.80;72.20
21502;DHT22;27639;48.674;9.242;2022-10-22T03:34:30;16.80;72.00
21502;DHT22;27639;48.674;9.242;2022-10-22T03:36:58;16.80;72.00
21502;DHT22;27639;48.674;9.242;2022-10-22T03:39:25;16.80;72.00
21502;DHT22;27639;48.674;9.242;2022-10-22T03:41:51;16.70;72.10
21502;DHT22;27639;48.674;9.242;2022-10-22T03:44:17;16.70;72.20
21502;DHT22;27639;48.674;9.242;2022-10-22T03:46:44;16.70;72.40
21502;DHT22;27639;48.674;9.242;2022-10-22T03:49:09;16.70;72.40
21502;DHT22;27639;48.674;9.242;2022-10-22T03:51:35;16.60;72.50
21502;DHT22;27639;48.674;9.242;2022-10-22T03:54:01;16.60;72.60
21502;DHT22;27639;48.674;9.242;2022-10-22T03:56:27;16.60;72.70
21502;DHT22;27639;48.674;9.242;2022-10-22T03:58:55;16.60;72.70
21502;DHT22;27639;48.674;9.242;2022-10-22T04:01:22;16.60;72.80
21502;DHT22;27639;48.674;9.242;2022-10-22T04:03:48;16.60;72.80
21502;DHT22;27639;48.674;9.242;2022-10-22T04:06:13;16.60;72.80
21502;DHT22;27639;48.674;9.242;2022-10-22T04:08:40;16.50;72.70
21502;DHT22;27639;48.674;9.242;2022-10-22T04:11:07;16.60;72.80
21502;DHT22;27639;48.674;9.242;2022-10-22T04:13:32;16.60;72.60
21502;DHT22;27639;48.674;9.242;2022-10-22T04:16:11;16.60;72.40
21502;DHT22;27639;48.674;9.242;2022-10-22T04:18:38;16.70;72.10
21502;DHT22;27639;48.674;9.242;2022-10-22T04:21:06;16.60;72.10
21502;DHT22;27639;48.674;9.242;2022-10-22T04:23:31;16.60;72.00
21502;DHT22;27639;48.674;9.242;2022-10-22T04:25:58;16.60;71.80
21502;DHT22;27639;48.674;9.242;2022-10-22T04:28:24;16.60;71.70
21502;DHT22;27639;48.674;9.242;2022-10-22T04:30:50;16.60;71.50
21502;DHT22;27639;48.674;9.242;2022-10-22T04:33:16;16.70;71.50
21502;DHT22;27639;48.674;9.242;2022-10-22T04:35:41;16.60;71.30
21502;DHT22;27639;48.674;9.242;2022-10-22T04:38:07;16.50;71.30
21502;DHT22;27639;48.674;9.242;2022-10-22T04:40:32;16.50;71.20
21502;DHT22;27639;48.674;9.242;2022-10-22T04:42:58;16.50;71.20
21502;DHT22;27639;48.674;9.242;2022-10-22T04:45:23;16.50;71.20
21502;DHT22;27639;48.674;9.242;2022-10-22T04:47:49;16.50;70.90
21502;DHT22;27639;48.674;9.242;2022-10-22T04:50:14;16.60;70.90
21502;DHT22;27639;48.674;9.242;2022-10-22T04:52:40;16.60;70.80
21502;DHT22;27639;48.674;9.242;2022-10-22T04:55:06;16.60;70.80
21502;DHT22;27639;48.674;9.242;2022-10-22T04:57:31;16.60;70.80
21502;DHT22;27639;48.674;9.242;2022-10-22T04:59:57;16.60;70.70
21502;DHT22;27639;48.674;9.242;2022-10-22T05:02:23;16.60;70.80
21502;DHT22;27639;48.674;9.242;2022-10-22T05:04:48;16.50;70.70
21502;DHT22;27639;48.674;9.242;2022-10-22T05:07:14;16.50;70.70
21502;DHT22;27639;48.674;9.242;2022-10-22T05:09:39;16.50;70.60
21502;DHT22;27639;48.674;9.242;2022-10-22T05:12:05;16.50;70.40
21502;DHT22;27639;48.674;9.242;2022-10-22T05:14:31;16.60;70.60
21502;DHT22;27639;48.674;9.242;2022-10-22T05:16:57;16.60;70.30
21502;DHT22;27639;48.674;9.242;2022-10-22T05:19:25;16.70;70.40
21502;DHT22;27639;48.674;9.242;2022-10-22T05:21:56;16.70;70.20
21502;DHT22;27639;48.674;9.242;2022-10-22T05:24:23;16.70;70.00
21502;DHT22;27639;48.674;9.242;2022-10-22T05:26:50;16.70;69.90
21502;DHT22;27639;48.674;9.242;2022-10-22T05:29:16;16.70;69.90
21502;DHT22;27639;48.674;9.242;2022-10-22T05:31:41;16.70;70.00
21502;DHT22;27639;48.674;9.242;2022-10-22T05:34:07;16.70;69.70
21502;DHT22;27639;48.674;9.242;2022-10-22T05:36:32;16.70;69.50
21502;DHT22;27639;48.674;9.242;2022-10-22T05:38:58;16.70;70.00
21502;DHT22;27639;48.674;9.242;2022-10-22T05:41:25;16.70;69.50
21502;DHT22;27639;48.674;9.242;2022-10-22T05:43:54;16.70;69.50
21502;DHT22;27639;48.674;9.242;2022-10-22T05:46:21;16.70;69.50
21502;DHT22;27639;48.674;9.242;2022-10-22T05:48:51;16.70;69.50
21502;DHT22;27639;48.674;9.242;2022-10-22T05:51:17;16.70;69.40
21502;DHT22;27639;48.674;9.242;2022-10-22T05:53:44;16.70;69.30
21502;DHT22;27639;48.674;9.242;2022-10-22T05:56:14;16.80;69.30
21502;DHT22;27639;48.674;9.242;2022-10-22T05:58:41;16.70;68.90
21502;DHT22;27639;48.674;9.242;2022-10-22T06:03:36;16.70;68.70
21502;DHT22;27639;48.674;9.242;2022-10-22T06:06:19;16.70;68.70
21502;DHT22;27639;48.674;9.242;2022-10-22T06:08:47;16.70;68.50
21502;DHT22;27639;48.674;9.242;2022-10-22T06:11:12;16.80;68.70
21502;DHT22;27639;48.674;9.242;2022-10-22T06:13:38;16.80;68.60
21502;DHT22;27639;48.674;9.242;2022-10-22T06:16:04;16.90;68.60
21502;DHT22;27639;48.674;9.242;2022-10-22T06:18:30;16.90;68.60
21502;DHT22;27639;48.674;9.242;2022-10-22T06:20:55;16.90;68.40
21502;DHT22;27639;48.674;9.242;2022-10-22T06:23:21;17.00;68.40
21502;DHT22;27639;48.674;9.242;2022-10-22T06:25:57;17.10;68.30
21502;DHT22;27639;48.674;9.242;2022-10-22T06:28:23;17.10;68.20
21502;DHT22;27639;48.674;9.242;2022-10-22T06:30:48;17.10;68.00
21502;DHT22;27639;48.674;9.242;2022-10-22T06:33:14;17.00;67.70
21502;DHT22;27639;48.674;9.242;2022-10-22T06:35:39;17.00;67.70
21502;DHT22;27639;48.674;9.242;2022-10-22T06:38:05;17.10;68.00
21502;DHT22;27639;48.674;9.242;2022-10-22T06:40:32;17.00;67.90
21502;DHT22;27639;48.674;9.242;2022-10-22T06:43:00;17.10;68.00
21502;DHT22;27639;48.674;9.242;2022-10-22T06:45:26;17.10;68.10
21502;DHT22;27639;48.674;9.242;2022-10-22T06:47:52;17.10;68.50
21502;DHT22;27639;48.674;9.242;2022-10-22T06:50:18;17.00;68.60
21502;DHT22;27639;48.674;9.242;2022-10-22T06:52:44;17.00;68.80
21502;DHT22;27639;48.674;9.242;2022-10-22T06:55:10;17.00;68.90
21502;DHT22;27639;48.674;9.242;2022-10-22T06:57:35;17.00;69.10
21502;DHT22;27639;48.674;9.242;2022-10-22T07:00:04;17.00;69.10
21502;DHT22;27639;48.674;9.242;2022-10-22T07:02:29;17.00;69.30
21502;DHT22;27639;48.674;9.242;2022-10-22T07:04:55;17.00;69.20
21502;DHT22;27639;48.674;9.242;2022-10-22T07:07:20;17.10;69.40
21502;DHT22;27639;48.674;9.242;2022-10-22T07:09:47;17.20;69.50
21502;DHT22;27639;48.674;9.242;2022-10-22T07:12:14;17.20;69.50
21502;DHT22;27639;48.674;9.242;2022-10-22T07:14:39;17.20;69.40
21502;DHT22;27639;48.674;9.242;2022-10-22T07:17:05;17.30;69.60
21502;DHT22;27639;48.674;9.242;2022-10-22T07:19:31;17.30;69.50
21502;DHT22;27639;48.674;9.242;2022-10-22T07:21:56;17.30;69.50
21502;DHT22;27639;48.674;9.242;2022-10-22T07:24:22;17.30;69.30
21502;DHT22;27639;48.674;9.242;2022-10-22T07:26:48;17.40;69.10
21502;DHT22;27639;48.674;9.242;2022-10-22T07:29:13;17.40;69.30
21502;DHT22;27639;48.674;9.242;2022-10-22T07:31:40;17.30;69.30
21502;DHT22;27639;48.674;9.242;2022-10-22T07:34:06;17.30;69.30
21502;DHT22;27639;48.674;9.242;2022-10-22T07:36:32;17.30;69.40
21502;DHT22;27639;48.674;9.242;2022-10-22T07:38:58;17.30;69.50
21502;DHT22;27639;48.674;9.242;2022-10-22T07:41:24;17.40;69.60
21502;DHT22;27639;48.674;9.242;2022-10-22T07:43:50;17.50;70.30
21502;DHT22;27639;48.674;9.242;2022-10-22T07:46:16;17.50;69.20
21502;DHT22;27639;48.674;9.242;2022-10-22T07:48:42;17.60;69.30
21502;DHT22;27639;48.674;9.242;2022-10-22T07:51:07;17.60;69.30
21502;DHT22;27639;48.674;9.242;2022-10-22T07:53:33;17.70;69.50
21502;DHT22;27639;48.674;9.242;2022-10-22T07:55:59;17.70;69.50
21502;DHT22;27639;48.674;9.242;2022-10-22T07:58:25;17.80;69.60
21502;DHT22;27639;48.674;9.242;2022-10-22T08:00:54;17.80;69.40
21502;DHT22;27639;48.674;9.242;2022-10-22T08:03:20;17.90;69.40
21502;DHT22;27639;48.674;9.242;2022-10-22T08:05:46;17.90;69.20
21502;DHT22;27639;48.674;9.242;2022-10-22T08:08:13;18.00;69.10
21502;DHT22;27639;48.674;9.242;2022-10-22T08:10:39;18.00;69.00
21502;DHT22;27639;48.674;9.242;2022-10-22T08:13:06;18.00;68.90
21502;DHT22;27639;48.674;9.242;2022-10-22T08:15:31;18.10;68.80
21502;DHT22;27639;48.674;9.242;2022-10-22T08:17:57;18.10;68.70
21502;DHT22;27639;48.674;9.242;2022-10-22T08:20:22;18.00;68.60
21502;DHT22;27639;48.674;9.242;2022-10-22T08:22:48;18.00;68.60
21502;DHT22;27639;48.674;9.242;2022-10-22T08:25:14;18.00;68.60
21502;DHT22;27639;48.674;9.242;2022-10-22T08:27:40;18.00;68.60
21502;DHT22;27639;48.674;9.242;2022-10-22T08:30:06;18.00;68.60
21502;DHT22;27639;48.674;9.242;2022-10-22T08:32:32;18.00;68.60
21502;DHT22;27639;48.674;9.242;2022-10-22T08:34:57;18.00;68.70
21502;DHT22;27639;48.674;9.242;2022-10-22T08:37:23;18.10;69.00
21502;DHT22;27639;48.674;9.242;2022-10-22T08:39:48;18.10;69.30
21502;DHT22;27639;48.674;9.242;2022-10-22T08:45:14;18.20;70.00
21502;DHT22;27639;48.674;9.242;2022-10-22T08:50:36;18.40;69.60
21502;DHT22;27639;48.674;9.242;2022-10-22T08:53:07;18.50;70.20
21502;DHT22;27639;48.674;9.242;2022-10-22T08:55:36;18.70;69.70
21502;DHT22;27639;48.674;9.242;2022-10-22T08:58:18;18.80;69.50
21502;DHT22;27639;48.674;9.242;2022-10-22T09:03:57;18.90;69.20
21502;DHT22;27639;48.674;9.242;2022-10-22T09:06:25;19.10;69.40
21502;DHT22;27639;48.674;9.242;2022-10-22T09:08:52;19.30;69.40
21502;DHT22;27639;48.674;9.242;2022-10-22T09:11:34;19.50;68.70
21502;DHT22;27639;48.674;9.242;2022-10-22T09:14:01;19.70;68.60
21502;DHT22;27639;48.674;9.242;2022-10-22T09:19:32;19.90;67.10
21502;DHT22;27639;48.674;9.242;2022-10-22T09:22:17;20.10;66.60
21502;DHT22;27639;48.674;9.242;2022-10-22T09:24:50;20.10;66.50
21502;DHT22;27639;48.674;9.242;2022-10-22T09:27:20;20.20;65.90
21502;DHT22;27639;48.674;9.242;2022-10-22T09:29:48;20.30;66.00
21502;DHT22;27639;48.674;9.242;2022-10-22T09:32:14;20.40;65.40
21502;DHT22;27639;48.674;9.242;2022-10-22T09:34:43;20.50;65.40
21502;DHT22;27639;48.674;9.242;2022-10-22T09:37:10;20.60;64.50
21502;DHT22;27639;48.674;9.242;2022-10-22T09:39:43;20.60;64.40
21502;DHT22;27639;48.674;9.242;2022-10-22T09:42:17;20.60;64.00
21502;DHT22;27639;48.674;9.242;2022-10-22T09:44:43;20.60;63.80
21502;DHT22;27639;48.674;9.242;2022-10-22T09:47:31;20.70;63.90
21502;DHT22;27639;48.674;9.242;2022-10-22T09:52:35;20.90;63.80
21502;DHT22;27639;48.674;9.242;2022-10-22T09:55:02;21.00;63.60
21502;DHT22;27639;48.674;9.242;2022-10-22T09:57:28;21.00;63.60
21502;DHT22;27639;48.674;9.242;2022-10-22T09:59:54;21.10;63.60
21502;DHT22;27639;48.674;9.242;2022-10-22T10:02:26;21.20;63.30
21502;DHT22;27639;48.674;9.242;2022-10-22T10:04:54;21.30;62.70
21502;DHT22;27639;48.674;9.242;2022-10-22T10:07:29;21.40;63.10
21502;DHT22;27639;48.674;9.242;2022-10-22T10:09:56;21.60;62.40
21502;DHT22;27639;48.674;9.242;2022-10-22T10:12:45;21.60;61.90
21502;DHT22;27639;48.674;9.242;2022-10-22T10:21:00;21.80;60.70
21502;DHT22;27639;48.674;9.242;2022-10-22T10:26:25;21.80;60.40
21502;DHT22;27639;48.674;9.242;2022-10-22T10:29:35;21.80;59.90
21502;DHT22;27639;48.674;9.242;2022-10-22T10:35:12;21.90;60.20
21502;DHT22;27639;48.674;9.242;2022-10-22T10:40:52;22.20;60.10
21502;DHT22;27639;48.674;9.242;2022-10-22T10:45:57;22.40;60.00
21502;DHT22;27639;48.674;9.242;2022-10-22T10:48:35;22.60;59.70
21502;DHT22;27639;48.674;9.242;2022-10-22T10:54:31;22.60;58.90
21502;DHT22;27639;48.674;9.242;2022-10-22T10:57:03;22.60;58.00
21502;DHT22;27639;48.674;9.242;2022-10-22T10:59:49;22.60;58.90
21502;DHT22;27639;48.674;9.242;2022-10-22T11:05:27;22.80;57.80
21502;DHT22;27639;48.674;9.242;2022-10-22T11:08:00;22.70;57.70
21502;DHT22;27639;48.674;9.242;2022-10-22T11:10:42;22.80;58.10
21502;DHT22;27639;48.674;9.242;2022-10-22T11:13:35;22.90;57.80
21502;DHT22;27639;48.674;9.242;2022-10-22T11:16:09;23.00;57.60
21502;DHT22;27639;48.674;9.242;2022-10-22T11:24:21;23.20;56.90
21502;DHT22;27639;48.674;9.242;2022-10-22T11:29:27;23.50;56.30
21502;DHT22;27639;48.674;9.242;2022-10-22T11:31:55;23.40;55.90
21502;DHT22;27639;48.674;9.242;2022-10-22T11:34:33;23.40;55.50
21502;DHT22;27639;48.674;9.242;2022-10-22T11:37:01;23.40;55.30
21502;DHT22;27639;48.674;9.242;2022-10-22T11:39:34;23.40;54.80
21502;DHT22;27639;48.674;9.242;2022-10-22T11:42:05;23.50;55.40
21502;DHT22;27639;48.674;9.242;2022-10-22T11:44:44;23.60;55.20
21502;DHT22;27639;48.674;9.242;2022-10-22T11:47:22;23.60;53.20
21502;DHT22;27639;48.674;9.242;2022-10-22T11:50:16;23.60;53.90
21502;DHT22;27639;48.674;9.242;2022-10-22T11:55:33;23.40;53.40
21502;DHT22;27639;48.674;9.242;2022-10-22T12:06:27;23.70;52.80
21502;DHT22;27639;48.674;9.242;2022-10-22T12:19:38;23.50;51.20
21502;DHT22;27639;48.674;9.242;2022-10-22T12:24:34;23.70;50.90
21502;DHT22;27639;48.674;9.242;2022-10-22T12:27:01;23.70;50.50
21502;DHT22;27639;48.674;9.242;2022-10-22T12:29:30;23.80;50.80
21502;DHT22;27639;48.674;9.242;2022-10-22T12:31:56;23.80;50.70
21502;DHT22;27639;48.674;9.242;2022-10-22T12:34:23;23.90;50.40
21502;DHT22;27639;48.674;9.242;2022-10-22T12:36:51;23.90;50.00
21502;DHT22;27639;48.674;9.242;2022-10-22T12:39:23;24.00;50.60
21502;DHT22;27639;48.674;9.242;2022-10-22T12:41:51;24.10;51.10
21502;DHT22;27639;48.674;9.242;2022-10-22T12:44:17;24.10;50.60
21502;DHT22;27639;48.674;9.242;2022-10-22T12:46:44;24.20;50.60
21502;DHT22;27639;48.674;9.242;2022-10-22T12:49:21;24.20;49.60
21502;DHT22;27639;48.674;9.242;2022-10-22T12:51:49;24.20;49.30
21502;DHT22;27639;48.674;9.242;2022-10-22T12:54:26;24.10;49.30
21502;DHT22;27639;48.674;9.242;2022-10-22T12:56:54;24.00;48.40
21502;DHT22;27639;48.674;9.242;2022-10-22T12:59:29;24.10;48.90
21502;DHT22;27639;48.674;9.242;2022-10-22T13:01:57;24.20;48.90
21502;DHT22;27639;48.674;9.242;2022-10-22T13:04:35;24.20;49.10
21502;DHT22;27639;48.674;9.242;2022-10-22T13:07:15;24.20;48.70
21502;DHT22;27639;48.674;9.242;2022-10-22T13:09:47;24.20;49.30
21502;DHT22;27639;48.674;9.242;2022-10-22T13:12:42;24.20;49.30
21502;DHT22;27639;48.674;9.242;2022-10-22T13:15:37;24.20;48.70
21502;DHT22;27639;48.674;9.242;2022-10-22T13:18:23;24.20;49.60
21502;DHT22;27639;48.674;9.242;2022-10-22T13:20:57;24.20;48.30
21502;DHT22;27639;48.674;9.242;2022-10-22T13:23:25;24.20;48.60
21502;DHT22;27639;48.674;9.242;2022-10-22T13:26:13;24.20;48.70
21502;DHT22;27639;48.674;9.242;2022-10-22T13:28:39;24.20;48.20
21502;DHT22;27639;48.674;9.242;2022-10-22T13:31:17;24.20;48.30
21502;DHT22;27639;48.674;9.242;2022-10-22T13:33:45;24.20;47.90
21502;DHT22;27639;48.674;9.242;2022-10-22T13:36:15;24.10;48.20
21502;DHT22;27639;48.674;9.242;2022-10-22T13:38:42;24.00;48.50
21502;DHT22;27639;48.674;9.242;2022-10-22T13:41:26;24.10;48.80
21502;DHT22;27639;48.674;9.242;2022-10-22T13:43:52;24.20;47.70
21502;DHT22;27639;48.674;9.242;2022-10-22T13:46:19;24.20;47.90
21502;DHT22;27639;48.674;9.242;2022-10-22T13:48:46;24.20;47.90
21502;DHT22;27639;48.674;9.242;2022-10-22T13:51:18;24.20;47.90
21502;DHT22;27639;48.674;9.242;2022-10-22T13:53:45;24.20;47.80
21502;DHT22;27639;48.674;9.242;2022-10-22T13:56:16;24.30;48.30
21502;DHT22;27639;48.674;9.242;2022-10-22T13:58:43;24.20;47.80
21502;DHT22;27639;48.674;9.242;2022-10-22T14:01:24;24.20;48.00
21502;DHT22;27639;48.674;9.242;2022-10-22T14:03:52;24.20;47.70
21502;DHT22;27639;48.674;9.242;2022-10-22T14:06:20;24.20;47.30
21502;DHT22;27639;48.674;9.242;2022-10-22T14:08:48;24.00;47.50
21502;DHT22;27639;48.674;9.242;2022-10-22T14:11:16;24.00;47.70
21502;DHT22;27639;48.674;9.242;2022-10-22T14:13:42;23.90;47.70
21502;DHT22;27639;48.674;9.242;2022-10-22T14:16:18;23.90;47.60
21502;DHT22;27639;48.674;9.242;2022-10-22T14:18:44;23.90;47.50
21502;DHT22;27639;48.674;9.242;2022-10-22T14:21:12;24.00;47.80
21502;DHT22;27639;48.674;9.242;2022-10-22T14:23:39;24.00;48.00
21502;DHT22;27639;48.674;9.242;2022-10-22T14:26:06;24.00;47.80
21502;DHT22;27639;48.674;9.242;2022-10-22T14:28:32;23.90;47.50
21502;DHT22;27639;48.674;9.242;2022-10-22T14:30:58;23.90;47.90
21502;DHT22;27639;48.674;9.242;2022-10-22T14:33:31;23.80;47.80
21502;DHT22;27639;48.674;9.242;2022-10-22T14:36:01;23.80;47.90
21502;DHT22;27639;48.674;9.242;2022-10-22T14:38:27;23.80;48.30
21502;DHT22;27639;48.674;9.242;2022-10-22T14:40:53;23.80;48.00
21502;DHT22;27639;48.674;9.242;2022-10-22T14:43:24;23.80;48.00
21502;DHT22;27639;48.674;9.242;2022-10-22T14:45:50;23.70;48.00
21502;DHT22;27639;48.674;9.242;2022-10-22T14:48:16;23.70;48.30
21502;DHT22;27639;48.674;9.242;2022-10-22T14:50:43;23.70;48.70
21502;DHT22;27639;48.674;9.242;2022-10-22T14:53:09;23.50;48.40
21502;DHT22;27639;48.674;9.242;2022-10-22T14:55:35;23.60;48.60
21502;DHT22;27639;48.674;9.242;2022-10-22T14:58:01;23.50;48.70
21502;DHT22;27639;48.674;9.242;2022-10-22T15:00:27;23.50;48.80
21502;DHT22;27639;48.674;9.242;2022-10-22T15:02:52;23.60;48.60
21502;DHT22;27639;48.674;9.242;2022-10-22T15:05:20;23.50;48.70
21502;DHT22;27639;48.674;9.242;2022-10-22T15:07:46;23.40;48.30
21502;DHT22;27639;48.674;9.242;2022-10-22T15:10:12;23.40;48.70
21502;DHT22;27639;48.674;9.242;2022-10-22T15:12:38;23.40;48.90
21502;DHT22;27639;48.674;9.242;2022-10-22T15:15:04;23.40;49.40
21502;DHT22;27639;48.674;9.242;2022-10-22T15:17:30;23.40;49.40
21502;DHT22;27639;48.674;9.242;2022-10-22T15:19:55;23.40;48.90
21502;DHT22;27639;48.674;9.242;2022-10-22T15:22:24;23.30;49.10
21502;DHT22;27639;48.674;9.242;2022-10-22T15:24:49;23.40;48.70
21502;DHT22;27639;48.674;9.242;2022-10-22T15:27:17;23.40;48.70
21502;DHT22;27639;48.674;9.242;2022-10-22T15:29:42;23.30;48.60
21502;DHT22;27639;48.674;9.242;2022-10-22T15:32:08;23.30;48.40
21502;DHT22;27639;48.674;9.242;2022-10-22T15:34:36;23.20;48.50
21502;DHT22;27639;48.674;9.242;2022-10-22T15:37:04;23.10;48.70
21502;DHT22;27639;48.674;9.242;2022-10-22T15:39:30;23.10;48.90
21502;DHT22;27639;48.674;9.242;2022-10-22T15:41:56;23.00;49.20
21502;DHT22;27639;48.674;9.242;2022-10-22T15:44:25;22.90;49.50
21502;DHT22;27639;48.674;9.242;2022-10-22T15:46:51;22.90;50.00
21502;DHT22;27639;48.674;9.242;2022-10-22T15:49:17;22.90;50.00
21502;DHT22;27639;48.674;9.242;2022-10-22T15:51:43;22.80;50.10
21502;DHT22;27639;48.674;9.242;2022-10-22T15:54:13;22.80;50.40
21502;DHT22;27639;48.674;9.242;2022-10-22T15:56:39;22.70;50.70
21502;DHT22;27639;48.674;9.242;2022-10-22T15:59:05;22.70;51.10
21502;DHT22;27639;48.674;9.242;2022-10-22T16:01:33;22.70;51.20
21502;DHT22;27639;48.674;9.242;2022-10-22T16:03:59;22.60;51.50
21502;DHT22;27639;48.674;9.242;2022-10-22T16:06:32;22.50;51.80
21502;DHT22;27639;48.674;9.242;2022-10-22T16:08:59;22.40;52.00
21502;DHT22;27639;48.674;9.242;2022-10-22T16:11:26;22.20;51.90
21502;DHT22;27639;48.674;9.242;2022-10-22T16:13:56;22.20;52.10
21502;DHT22;27639;48.674;9.242;2022-10-22T16:16:27;22.10;52.00
21502;DHT22;27639;48.674;9.242;2022-10-22T16:18:53;22.00;52.20
21502;DHT22;27639;48.674;9.242;2022-10-22T16:21:20;21.90;52.50
21502;DHT22;27639;48.674;9.242;2022-10-22T16:23:46;21.90;52.50
21502;DHT22;27639;48.674;9.242;2022-10-22T16:26:12;21.80;52.70
21502;DHT22;27639;48.674;9.242;2022-10-22T16:28:39;21.80;52.90
21502;DHT22;27639;48.674;9.242;2022-10-22T16:31:07;21.70;53.00
21502;DHT22;27639;48.674;9.242;2022-10-22T16:33:34;21.60;53.10
21502;DHT22;27639;48.674;9.242;2022-10-22T16:36:01;21.50;53.40
21502;DHT22;27639;48.674;9.242;2022-10-22T16:38:27;21.40;53.30
21502;DHT22;27639;48.674;9.242;2022-10-22T16:40:53;21.30;53.10
21502;DHT22;27639;48.674;9.242;2022-10-22T16:43:19;21.20;52.90
21502;DHT22;27639;48.674;9.242;2022-10-22T16:45:50;21.20;53.10
21502;DHT22;27639;48.674;9.242;2022-10-22T16:48:17;21.10;52.90
21502;DHT22;27639;48.674;9.242;2022-10-22T16:50:43;21.10;53.40
21502;DHT22;27639;48.674;9.242;2022-10-22T16:53:09;21.00;53.60
21502;DHT22;27639;48.674;9.242;2022-10-22T16:55:38;21.00;53.40
21502;DHT22;27639;48.674;9.242;2022-10-22T16:58:05;20.90;53.60
21502;DHT22;27639;48.674;9.242;2022-10-22T17:00:31;20.90;53.90
21502;DHT22;27639;48.674;9.242;2022-10-22T17:02:57;20.90;54.20
21502;DHT22;27639;48.674;9.242;2022-10-22T17:05:22;20.80;54.30
21502;DHT22;27639;48.674;9.242;2022-10-22T17:07:48;20.80;54.60
21502;DHT22;27639;48.674;9.242;2022-10-22T17:10:15;20.70;54.70
21502;DHT22;27639;48.674;9.242;2022-10-22T17:12:41;20.70;55.00
21502;DHT22;27639;48.674;9.242;2022-10-22T17:15:07;20.60;55.20
21502;DHT22;27639;48.674;9.242;2022-10-22T17:17:33;20.50;55.20
21502;DHT22;27639;48.674;9.242;2022-10-22T17:19:58;20.50;55.40
21502;DHT22;27639;48.674;9.242;2022-10-22T17:22:24;20.40;55.50
21502;DHT22;27639;48.674;9.242;2022-10-22T17:25:34;20.30;55.60
21502;DHT22;27639;48.674;9.242;2022-10-22T17:28:00;20.20;55.30